sensor_id;sensor_type;location;lat;lon;timestamp;P1;durP1;ratioP1;P2;durP2;ratioP2
26718;SDS011;14326;50.794;6.060;2022-12-18T00:00:07;52.03;;;19.20;;
26718;SDS011;14326;50.794;6.060;2022-12-18T00:02:35;50.25;;;18.90;;
26718;SDS011;14326;50.794;6.060;2022-12-18T00:05:02;57.72;;;21.35;;
26718;SDS011;14326;50.794;6.060;2022-12-18T00:07:29;52.22;;;20.17;;
26718;SDS011;14326;50.794;6.060;2022-12-18T00:09:57;51.70;;;20.38;;
26718;SDS011;14326;50.794;6.060;2022-12-18T00:12:23;45.85;;;19.38;;
26718;SDS011;14326;50.794;6.060;2022-12-18T00:14:52;59.38;;;20.92;;
26718;SDS011;14326;50.794;6.060;2022-12-18T00:17:19;56.25;;;19.83;;
26718;SDS011;14326;50.794;6.060;2022-12-18T00:19:46;55.78;;;21.65;;
26718;SDS011;14326;50.794;6.060;2022-12-18T00:22:12;53.85;;;20.92;;
26718;SDS011;14326;50.794;6.060;2022-12-18T00:24:39;54.17;;;20.27;;
26718;SDS011;14326;50.794;6.060;2022-12-18T00:27:05;62.88;;;21.83;;
26718;SDS011;14326;50.794;6.060;2022-12-18T00:29:32;55.47;;;20.65;;
26718;SDS011;14326;50.794;6.060;2022-12-18T00:32:00;57.40;;;20.15;;
26718;SDS011;14326;50.794;6.060;2022-12-18T00:34:26;54.78;;;20.02;;
26718;SDS011;14326;50.794;6.060;2022-12-18T00:36:53;48.97;;;19.02;;
26718;SDS011;14326;50.794;6.060;2022-12-18T00:39:20;48.42;;;20.00;;
26718;SDS011;14326;50.794;6.060;2022-12-18T00:41:46;44.78;;;16.77;;
26718;SDS011;14326;50.794;6.060;2022-12-18T00:44:30;44.03;;;16.42;;
26718;SDS011;14326;50.794;6.060;2022-12-18T00:46:57;38.05;;;14.27;;
26718;SDS011;14326;50.794;6.060;2022-12-18T00:49:25;40.03;;;14.45;;
26718;SDS011;14326;50.794;6.060;2022-12-18T00:51:52;37.53;;;15.68;;
26718;SDS011;14326;50.794;6.060;2022-12-18T00:54:21;43.58;;;14.07;;
26718;SDS011;14326;50.794;6.060;2022-12-18T00:56:48;37.42;;;14.48;;
26718;SDS011;14326;50.794;6.060;2022-12-18T00:59:14;37.38;;;13.88;;
26718;SDS011;14326;50.794;6.060;2022-12-18T01:01:41;37.63;;;13.38;;
26718;SDS011;14326;50.794;6.060;2022-12-18T01:04:08;36.70;;;12.88;;
26718;SDS011;14326;50.794;6.060;2022-12-18T01:06:36;36.90;;;14.05;;
26718;SDS011;14326;50.794;6.060;2022-12-18T01:09:03;34.38;;;13.60;;
26718;SDS011;14326;50.794;6.060;2022-12-18T01:11:30;37.70;;;14.90;;
26718;SDS011;14326;50.794;6.060;2022-12-18T01:13:57;40.42;;;15.10;;
26718;SDS011;14326;50.794;6.060;2022-12-18T01:16:24;42.88;;;15.25;;
26718;SDS011;14326;50.794;6.060;2022-12-18T01:18:51;34.88;;;13.68;;
26718;SDS011;14326;50.794;6.060;2022-12-18T01:21:18;35.88;;;14.13;;
26718;SDS011;14326;50.794;6.060;2022-12-18T01:23:50;38.80;;;14.45;;
26718;SDS011;14326;50.794;6.060;2022-12-18T01:26:18;45.35;;;15.77;;
26718;SDS011;14326;50.794;6.060;2022-12-18T01:28:45;44.80;;;14.07;;
26718;SDS011;14326;50.794;6.060;2022-12-18T01:31:13;39.33;;;15.60;;
26718;SDS011;14326;50.794;6.060;2022-12-18T01:33:41;42.00;;;15.05;;
26718;SDS011;14326;50.794;6.060;2022-12-18T01:36:08;40.42;;;13.70;;
26718;SDS011;14326;50.794;6.060;2022-12-18T01:38:40;34.42;;;13.68;;
26718;SDS011;14326;50.794;6.060;2022-12-18T01:41:09;39.85;;;13.80;;
26718;SDS011;14326;50.794;6.060;2022-12-18T01:43:42;30.45;;;10.85;;
26718;SDS011;14326;50.794;6.060;2022-12-18T01:46:14;37.58;;;12.55;;
26718;SDS011;14326;50.794;6.060;2022-12-18T01:48:41;35.83;;;12.20;;
26718;SDS011;14326;50.794;6.060;2022-12-18T01:51:09;34.35;;;11.77;;
26718;SDS011;14326;50.794;6.060;2022-12-18T01:53:37;29.90;;;11.20;;
26718;SDS011;14326;50.794;6.060;2022-12-18T01:56:06;34.22;;;11.18;;
26718;SDS011;14326;50.794;6.060;2022-12-18T01:58:37;30.52;;;12.38;;
26718;SDS011;14326;50.794;6.060;2022-12-18T02:01:10;31.50;;;11.88;;
26718;SDS011;14326;50.794;6.060;2022-12-18T02:03:37;28.60;;;10.80;;
26718;SDS011;14326;50.794;6.060;2022-12-18T02:06:06;30.23;;;11.73;;
26718;SDS011;14326;50.794;6.060;2022-12-18T02:08:40;31.83;;;12.43;;
26718;SDS011;14326;50.794;6.060;2022-12-18T02:11:16;34.28;;;12.30;;
26718;SDS011;14326;50.794;6.060;2022-12-18T02:13:53;40.17;;;13.20;;
26718;SDS011;14326;50.794;6.060;2022-12-18T02:16:29;36.75;;;13.40;;
26718;SDS011;14326;50.794;6.060;2022-12-18T02:19:06;40.03;;;13.60;;
26718;SDS011;14326;50.794;6.060;2022-12-18T02:21:49;37.50;;;12.82;;
26718;SDS011;14326;50.794;6.060;2022-12-18T02:24:26;37.15;;;15.30;;
26718;SDS011;14326;50.794;6.060;2022-12-18T02:27:01;36.15;;;14.02;;
26718;SDS011;14326;50.794;6.060;2022-12-18T02:29:32;36.80;;;13.98;;
26718;SDS011;14326;50.794;6.060;2022-12-18T02:32:04;36.45;;;14.02;;
26718;SDS011;14326;50.794;6.060;2022-12-18T02:34:35;40.17;;;13.30;;
26718;SDS011;14326;50.794;6.060;2022-12-18T02:37:04;41.53;;;14.88;;
26718;SDS011;14326;50.794;6.060;2022-12-18T02:39:35;40.13;;;14.68;;
26718;SDS011;14326;50.794;6.060;2022-12-18T02:42:05;35.90;;;14.07;;
26718;SDS011;14326;50.794;6.060;2022-12-18T02:44:33;38.80;;;13.82;;
26718;SDS011;14326;50.794;6.060;2022-12-18T02:47:02;35.35;;;13.38;;
26718;SDS011;14326;50.794;6.060;2022-12-18T02:49:31;37.15;;;14.82;;
26718;SDS011;14326;50.794;6.060;2022-12-18T02:52:05;36.67;;;14.73;;
26718;SDS011;14326;50.794;6.060;2022-12-18T02:54:42;35.95;;;13.82;;
26718;SDS011;14326;50.794;6.060;2022-12-18T02:57:22;39.90;;;13.32;;
26718;SDS011;14326;50.794;6.060;2022-12-18T02:59:57;39.67;;;14.52;;
26718;SDS011;14326;50.794;6.060;2022-12-18T03:02:29;35.50;;;13.18;;
26718;SDS011;14326;50.794;6.060;2022-12-18T03:05:03;34.33;;;12.07;;
26718;SDS011;14326;50.794;6.060;2022-12-18T03:07:37;37.30;;;13.57;;
26718;SDS011;14326;50.794;6.060;2022-12-18T03:10:09;37.65;;;15.45;;
26718;SDS011;14326;50.794;6.060;2022-12-18T03:12:41;39.40;;;13.82;;
26718;SDS011;14326;50.794;6.060;2022-12-18T03:15:13;40.03;;;13.65;;
26718;SDS011;14326;50.794;6.060;2022-12-18T03:17:44;38.33;;;14.25;;
26718;SDS011;14326;50.794;6.060;2022-12-18T03:20:17;40.65;;;14.00;;
26718;SDS011;14326;50.794;6.060;2022-12-18T03:22:48;33.28;;;13.60;;
26718;SDS011;14326;50.794;6.060;2022-12-18T03:25:19;35.92;;;12.60;;
26718;SDS011;14326;50.794;6.060;2022-12-18T03:27:49;34.20;;;12.70;;
26718;SDS011;14326;50.794;6.060;2022-12-18T03:30:20;34.78;;;12.02;;
26718;SDS011;14326;50.794;6.060;2022-12-18T03:32:47;31.83;;;11.25;;
26718;SDS011;14326;50.794;6.060;2022-12-18T03:35:21;27.60;;;11.50;;
26718;SDS011;14326;50.794;6.060;2022-12-18T03:37:54;31.77;;;10.75;;
26718;SDS011;14326;50.794;6.060;2022-12-18T03:40:22;30.73;;;11.82;;
26718;SDS011;14326;50.794;6.060;2022-12-18T03:42:58;31.20;;;11.45;;
26718;SDS011;14326;50.794;6.060;2022-12-18T03:45:32;29.85;;;11.27;;
26718;SDS011;14326;50.794;6.060;2022-12-18T03:48:04;37.75;;;12.55;;
26718;SDS011;14326;50.794;6.060;2022-12-18T03:50:37;29.02;;;11.18;;
26718;SDS011;14326;50.794;6.060;2022-12-18T03:53:15;32.00;;;11.00;;
26718;SDS011;14326;50.794;6.060;2022-12-18T03:55:49;32.10;;;11.60;;
26718;SDS011;14326;50.794;6.060;2022-12-18T03:58:20;38.17;;;10.23;;
26718;SDS011;14326;50.794;6.060;2022-12-18T04:00:49;30.02;;;11.15;;
26718;SDS011;14326;50.794;6.060;2022-12-18T04:05:46;31.75;;;10.98;;
26718;SDS011;14326;50.794;6.060;2022-12-18T04:08:15;24.25;;;8.85;;
26718;SDS011;14326;50.794;6.060;2022-12-18T04:10:42;32.03;;;10.95;;
26718;SDS011;14326;50.794;6.060;2022-12-18T04:13:09;29.98;;;10.55;;
26718;SDS011;14326;50.794;6.060;2022-12-18T04:15:37;30.50;;;10.82;;
26718;SDS011;14326;50.794;6.060;2022-12-18T04:18:05;32.75;;;11.60;;
26718;SDS011;14326;50.794;6.060;2022-12-18T04:20:31;32.22;;;10.05;;
26718;SDS011;14326;50.794;6.060;2022-12-18T04:22:58;28.00;;;11.30;;
26718;SDS011;14326;50.794;6.060;2022-12-18T04:25:25;30.58;;;10.88;;
26718;SDS011;14326;50.794;6.060;2022-12-18T04:27:52;28.75;;;11.20;;
26718;SDS011;14326;50.794;6.060;2022-12-18T04:30:18;27.45;;;10.27;;
26718;SDS011;14326;50.794;6.060;2022-12-18T04:32:46;31.95;;;10.98;;
26718;SDS011;14326;50.794;6.060;2022-12-18T04:35:13;26.85;;;9.88;;
26718;SDS011;14326;50.794;6.060;2022-12-18T04:37:40;32.05;;;11.02;;
26718;SDS011;14326;50.794;6.060;2022-12-18T04:40:07;30.48;;;11.10;;
26718;SDS011;14326;50.794;6.060;2022-12-18T04:42:34;29.55;;;10.02;;
26718;SDS011;14326;50.794;6.060;2022-12-18T04:45:00;33.67;;;10.95;;
26718;SDS011;14326;50.794;6.060;2022-12-18T04:47:27;30.70;;;10.00;;
26718;SDS011;14326;50.794;6.060;2022-12-18T04:49:55;26.20;;;9.98;;
26718;SDS011;14326;50.794;6.060;2022-12-18T04:52:22;28.60;;;9.90;;
26718;SDS011;14326;50.794;6.060;2022-12-18T04:54:48;27.95;;;9.55;;
26718;SDS011;14326;50.794;6.060;2022-12-18T04:57:15;29.55;;;9.50;;
26718;SDS011;14326;50.794;6.060;2022-12-18T04:59:43;27.88;;;8.73;;
26718;SDS011;14326;50.794;6.060;2022-12-18T05:02:09;28.20;;;9.02;;
26718;SDS011;14326;50.794;6.060;2022-12-18T05:04:36;27.77;;;10.02;;
26718;SDS011;14326;50.794;6.060;2022-12-18T05:07:05;26.05;;;9.07;;
26718;SDS011;14326;50.794;6.060;2022-12-18T05:09:31;28.60;;;8.70;;
26718;SDS011;14326;50.794;6.060;2022-12-18T05:11:58;25.55;;;8.90;;
26718;SDS011;14326;50.794;6.060;2022-12-18T05:14:24;26.85;;;8.13;;
26718;SDS011;14326;50.794;6.060;2022-12-18T05:16:52;24.55;;;8.73;;
26718;SDS011;14326;50.794;6.060;2022-12-18T05:19:19;26.85;;;8.88;;
26718;SDS011;14326;50.794;6.060;2022-12-18T05:21:45;25.90;;;8.57;;
26718;SDS011;14326;50.794;6.060;2022-12-18T05:24:13;28.70;;;9.27;;
26718;SDS011;14326;50.794;6.060;2022-12-18T05:26:40;23.73;;;8.68;;
26718;SDS011;14326;50.794;6.060;2022-12-18T05:29:06;27.05;;;8.10;;
26718;SDS011;14326;50.794;6.060;2022-12-18T05:31:37;24.48;;;8.15;;
26718;SDS011;14326;50.794;6.060;2022-12-18T05:34:04;28.58;;;9.38;;
26718;SDS011;14326;50.794;6.060;2022-12-18T05:36:30;27.77;;;9.13;;
26718;SDS011;14326;50.794;6.060;2022-12-18T05:38:57;27.90;;;8.90;;
26718;SDS011;14326;50.794;6.060;2022-12-18T05:41:26;26.50;;;8.15;;
26718;SDS011;14326;50.794;6.060;2022-12-18T05:43:53;25.65;;;8.82;;
26718;SDS011;14326;50.794;6.060;2022-12-18T05:46:20;27.38;;;8.73;;
26718;SDS011;14326;50.794;6.060;2022-12-18T05:48:47;26.20;;;8.10;;
26718;SDS011;14326;50.794;6.060;2022-12-18T05:51:16;24.05;;;8.25;;
26718;SDS011;14326;50.794;6.060;2022-12-18T05:53:44;25.95;;;9.20;;
26718;SDS011;14326;50.794;6.060;2022-12-18T05:56:11;20.15;;;7.50;;
26718;SDS011;14326;50.794;6.060;2022-12-18T05:58:41;24.90;;;7.80;;
26718;SDS011;14326;50.794;6.060;2022-12-18T06:01:09;24.23;;;7.40;;
26718;SDS011;14326;50.794;6.060;2022-12-18T06:03:37;21.73;;;7.75;;
26718;SDS011;14326;50.794;6.060;2022-12-18T06:06:11;22.83;;;7.50;;
26718;SDS011;14326;50.794;6.060;2022-12-18T06:08:39;24.17;;;7.47;;
26718;SDS011;14326;50.794;6.060;2022-12-18T06:11:05;25.10;;;8.68;;
26718;SDS011;14326;50.794;6.060;2022-12-18T06:13:32;24.08;;;7.50;;
26718;SDS011;14326;50.794;6.060;2022-12-18T06:16:02;22.40;;;7.03;;
26718;SDS011;14326;50.794;6.060;2022-12-18T06:18:29;23.50;;;7.50;;
26718;SDS011;14326;50.794;6.060;2022-12-18T06:20:56;23.45;;;8.25;;
26718;SDS011;14326;50.794;6.060;2022-12-18T06:23:23;25.73;;;8.10;;
26718;SDS011;14326;50.794;6.060;2022-12-18T06:25:50;25.88;;;7.47;;
26718;SDS011;14326;50.794;6.060;2022-12-18T06:28:18;22.73;;;6.65;;
26718;SDS011;14326;50.794;6.060;2022-12-18T06:30:44;27.65;;;8.05;;
26718;SDS011;14326;50.794;6.060;2022-12-18T06:33:13;24.00;;;7.57;;
26718;SDS011;14326;50.794;6.060;2022-12-18T06:35:40;20.37;;;6.77;;
26718;SDS011;14326;50.794;6.060;2022-12-18T06:38:07;26.13;;;9.18;;
26718;SDS011;14326;50.794;6.060;2022-12-18T06:40:34;23.02;;;7.78;;
26718;SDS011;14326;50.794;6.060;2022-12-18T06:43:03;22.60;;;6.82;;
26718;SDS011;14326;50.794;6.060;2022-12-18T06:45:29;24.73;;;7.63;;
26718;SDS011;14326;50.794;6.060;2022-12-18T06:47:56;21.13;;;7.00;;
26718;SDS011;14326;50.794;6.060;2022-12-18T06:50:24;24.90;;;7.97;;
26718;SDS011;14326;50.794;6.060;2022-12-18T06:52:50;24.70;;;7.68;;
26718;SDS011;14326;50.794;6.060;2022-12-18T06:55:17;20.50;;;6.93;;
26718;SDS011;14326;50.794;6.060;2022-12-18T06:57:44;22.25;;;8.57;;
26718;SDS011;14326;50.794;6.060;2022-12-18T07:00:11;25.00;;;7.45;;
26718;SDS011;14326;50.794;6.060;2022-12-18T07:02:38;23.15;;;7.40;;
26718;SDS011;14326;50.794;6.060;2022-12-18T07:05:06;20.50;;;7.10;;
26718;SDS011;14326;50.794;6.060;2022-12-18T07:07:34;25.77;;;7.65;;
26718;SDS011;14326;50.794;6.060;2022-12-18T07:10:01;21.13;;;6.88;;
26718;SDS011;14326;50.794;6.060;2022-12-18T07:12:28;23.30;;;7.03;;
26718;SDS011;14326;50.794;6.060;2022-12-18T07:14:54;23.33;;;7.65;;
26718;SDS011;14326;50.794;6.060;2022-12-18T07:17:21;25.23;;;7.65;;
26718;SDS011;14326;50.794;6.060;2022-12-18T07:19:48;22.75;;;7.63;;
26718;SDS011;14326;50.794;6.060;2022-12-18T07:22:14;20.85;;;6.72;;
26718;SDS011;14326;50.794;6.060;2022-12-18T07:24:42;22.20;;;6.22;;
26718;SDS011;14326;50.794;6.060;2022-12-18T07:27:09;21.73;;;7.47;;
26718;SDS011;14326;50.794;6.060;2022-12-18T07:29:35;24.05;;;7.57;;
26718;SDS011;14326;50.794;6.060;2022-12-18T07:32:02;24.13;;;7.95;;
26718;SDS011;14326;50.794;6.060;2022-12-18T07:34:29;20.92;;;6.97;;
26718;SDS011;14326;50.794;6.060;2022-12-18T07:36:55;23.17;;;7.50;;
26718;SDS011;14326;50.794;6.060;2022-12-18T07:39:22;26.38;;;8.52;;
26718;SDS011;14326;50.794;6.060;2022-12-18T07:41:50;21.00;;;7.50;;
26718;SDS011;14326;50.794;6.060;2022-12-18T07:44:31;23.23;;;7.38;;
26718;SDS011;14326;50.794;6.060;2022-12-18T07:46:57;23.23;;;6.93;;
26718;SDS011;14326;50.794;6.060;2022-12-18T07:49:24;23.00;;;7.60;;
26718;SDS011;14326;50.794;6.060;2022-12-18T07:51:51;24.33;;;6.82;;
26718;SDS011;14326;50.794;6.060;2022-12-18T07:54:19;26.95;;;7.72;;
26718;SDS011;14326;50.794;6.060;2022-12-18T07:56:46;24.00;;;8.38;;
26718;SDS011;14326;50.794;6.060;2022-12-18T07:59:14;22.67;;;7.38;;
26718;SDS011;14326;50.794;6.060;2022-12-18T08:01:41;27.10;;;9.07;;
26718;SDS011;14326;50.794;6.060;2022-12-18T08:04:07;24.40;;;7.80;;
26718;SDS011;14326;50.794;6.060;2022-12-18T08:06:34;24.48;;;8.13;;
26718;SDS011;14326;50.794;6.060;2022-12-18T08:09:01;24.40;;;7.90;;
26718;SDS011;14326;50.794;6.060;2022-12-18T08:11:28;25.10;;;8.48;;
26718;SDS011;14326;50.794;6.060;2022-12-18T08:13:55;23.08;;;7.95;;
26718;SDS011;14326;50.794;6.060;2022-12-18T08:16:23;23.33;;;8.02;;
26718;SDS011;14326;50.794;6.060;2022-12-18T08:18:51;25.30;;;8.02;;
26718;SDS011;14326;50.794;6.060;2022-12-18T08:21:19;22.23;;;8.30;;
26718;SDS011;14326;50.794;6.060;2022-12-18T08:23:48;17.52;;;6.10;;
26718;SDS011;14326;50.794;6.060;2022-12-18T08:26:15;25.50;;;8.52;;
26718;SDS011;14326;50.794;6.060;2022-12-18T08:28:42;26.23;;;9.23;;
26718;SDS011;14326;50.794;6.060;2022-12-18T08:31:09;27.42;;;8.27;;
26718;SDS011;14326;50.794;6.060;2022-12-18T08:33:38;23.17;;;7.63;;
26718;SDS011;14326;50.794;6.060;2022-12-18T08:36:05;25.00;;;8.65;;
26718;SDS011;14326;50.794;6.060;2022-12-18T08:38:36;25.63;;;8.50;;
26718;SDS011;14326;50.794;6.060;2022-12-18T08:41:03;24.20;;;8.60;;
26718;SDS011;14326;50.794;6.060;2022-12-18T08:43:31;25.92;;;8.45;;
26718;SDS011;14326;50.794;6.060;2022-12-18T08:46:15;29.88;;;8.90;;
26718;SDS011;14326;50.794;6.060;2022-12-18T08:48:44;25.73;;;9.25;;
26718;SDS011;14326;50.794;6.060;2022-12-18T08:51:10;26.75;;;9.40;;
26718;SDS011;14326;50.794;6.060;2022-12-18T08:53:37;24.23;;;9.00;;
26718;SDS011;14326;50.794;6.060;2022-12-18T08:56:05;26.52;;;8.77;;
26718;SDS011;14326;50.794;6.060;2022-12-18T08:58:32;27.15;;;9.82;;
26718;SDS011;14326;50.794;6.060;2022-12-18T09:00:59;27.45;;;10.25;;
26718;SDS011;14326;50.794;6.060;2022-12-18T09:03:26;27.33;;;9.45;;
26718;SDS011;14326;50.794;6.060;2022-12-18T09:05:55;25.85;;;9.32;;
26718;SDS011;14326;50.794;6.060;2022-12-18T09:08:21;32.63;;;9.95;;
26718;SDS011;14326;50.794;6.060;2022-12-18T09:10:49;27.55;;;9.68;;
26718;SDS011;14326;50.794;6.060;2022-12-18T09:13:16;28.23;;;10.05;;
26718;SDS011;14326;50.794;6.060;2022-12-18T09:15:44;28.02;;;10.52;;
26718;SDS011;14326;50.794;6.060;2022-12-18T09:18:12;28.75;;;11.27;;
26718;SDS011;14326;50.794;6.060;2022-12-18T09:20:39;27.38;;;10.10;;
26718;SDS011;14326;50.794;6.060;2022-12-18T09:23:08;32.58;;;11.50;;
26718;SDS011;14326;50.794;6.060;2022-12-18T09:25:35;31.38;;;10.65;;
26718;SDS011;14326;50.794;6.060;2022-12-18T09:28:03;27.05;;;10.20;;
26718;SDS011;14326;50.794;6.060;2022-12-18T09:30:31;29.08;;;11.18;;
26718;SDS011;14326;50.794;6.060;2022-12-18T09:32:59;28.65;;;11.52;;
26718;SDS011;14326;50.794;6.060;2022-12-18T09:35:26;29.80;;;11.40;;
26718;SDS011;14326;50.794;6.060;2022-12-18T09:37:53;30.48;;;12.65;;
26718;SDS011;14326;50.794;6.060;2022-12-18T09:40:22;29.40;;;11.20;;
26718;SDS011;14326;50.794;6.060;2022-12-18T09:42:52;35.47;;;14.55;;
26718;SDS011;14326;50.794;6.060;2022-12-18T09:45:23;34.50;;;12.98;;
26718;SDS011;14326;50.794;6.060;2022-12-18T09:47:51;32.53;;;13.15;;
26718;SDS011;14326;50.794;6.060;2022-12-18T09:50:22;29.13;;;10.52;;
26718;SDS011;14326;50.794;6.060;2022-12-18T09:52:54;31.08;;;13.15;;
26718;SDS011;14326;50.794;6.060;2022-12-18T09:55:28;33.75;;;14.45;;
26718;SDS011;14326;50.794;6.060;2022-12-18T09:58:00;30.25;;;13.13;;
26718;SDS011;14326;50.794;6.060;2022-12-18T10:00:31;32.13;;;14.13;;
26718;SDS011;14326;50.794;6.060;2022-12-18T10:02:59;37.90;;;14.93;;
26718;SDS011;14326;50.794;6.060;2022-12-18T10:05:30;31.63;;;12.40;;
26718;SDS011;14326;50.794;6.060;2022-12-18T10:08:05;40.42;;;16.83;;
26718;SDS011;14326;50.794;6.060;2022-12-18T10:10:39;46.67;;;18.23;;
26718;SDS011;14326;50.794;6.060;2022-12-18T10:13:15;40.47;;;16.50;;
26718;SDS011;14326;50.794;6.060;2022-12-18T10:15:56;31.48;;;12.73;;
26718;SDS011;14326;50.794;6.060;2022-12-18T10:18:37;37.70;;;13.67;;
26718;SDS011;14326;50.794;6.060;2022-12-18T10:21:23;35.42;;;13.75;;
26718;SDS011;14326;50.794;6.060;2022-12-18T10:23:57;30.58;;;12.30;;
26718;SDS011;14326;50.794;6.060;2022-12-18T10:26:36;32.10;;;13.98;;
26718;SDS011;14326;50.794;6.060;2022-12-18T10:29:04;33.30;;;12.93;;
26718;SDS011;14326;50.794;6.060;2022-12-18T10:31:37;32.47;;;12.20;;
26718;SDS011;14326;50.794;6.060;2022-12-18T10:34:03;38.58;;;14.70;;
26718;SDS011;14326;50.794;6.060;2022-12-18T10:36:35;29.75;;;11.40;;
26718;SDS011;14326;50.794;6.060;2022-12-18T10:39:13;28.02;;;10.43;;
26718;SDS011;14326;50.794;6.060;2022-12-18T10:41:43;30.35;;;11.95;;
26718;SDS011;14326;50.794;6.060;2022-12-18T10:44:11;37.60;;;14.85;;
26718;SDS011;14326;50.794;6.060;2022-12-18T10:46:44;34.85;;;12.27;;
26718;SDS011;14326;50.794;6.060;2022-12-18T10:49:18;37.75;;;13.18;;
26718;SDS011;14326;50.794;6.060;2022-12-18T10:51:47;37.20;;;14.32;;
26718;SDS011;14326;50.794;6.060;2022-12-18T10:54:15;32.17;;;13.52;;
26718;SDS011;14326;50.794;6.060;2022-12-18T10:56:46;34.22;;;13.27;;
26718;SDS011;14326;50.794;6.060;2022-12-18T10:59:13;31.80;;;13.57;;
26718;SDS011;14326;50.794;6.060;2022-12-18T11:01:48;34.00;;;14.32;;
26718;SDS011;14326;50.794;6.060;2022-12-18T11:04:17;41.13;;;16.38;;
26718;SDS011;14326;50.794;6.060;2022-12-18T11:06:56;39.42;;;16.08;;
26718;SDS011;14326;50.794;6.060;2022-12-18T11:09:26;38.67;;;15.27;;
26718;SDS011;14326;50.794;6.060;2022-12-18T11:11:55;40.42;;;17.88;;
26718;SDS011;14326;50.794;6.060;2022-12-18T11:14:24;39.85;;;16.27;;
26718;SDS011;14326;50.794;6.060;2022-12-18T11:16:53;30.73;;;12.77;;
26718;SDS011;14326;50.794;6.060;2022-12-18T11:19:25;33.83;;;15.20;;
26718;SDS011;14326;50.794;6.060;2022-12-18T11:21:57;36.92;;;14.75;;
26718;SDS011;14326;50.794;6.060;2022-12-18T11:24:26;40.22;;;16.50;;
26718;SDS011;14326;50.794;6.060;2022-12-18T11:26:57;39.15;;;16.20;;
26718;SDS011;14326;50.794;6.060;2022-12-18T11:29:33;39.53;;;16.58;;
26718;SDS011;14326;50.794;6.060;2022-12-18T11:32:21;38.40;;;15.98;;
26718;SDS011;14326;50.794;6.060;2022-12-18T11:34:55;36.47;;;15.23;;
26718;SDS011;14326;50.794;6.060;2022-12-18T11:37:27;37.97;;;15.75;;
26718;SDS011;14326;50.794;6.060;2022-12-18T11:39:55;35.67;;;15.02;;
26718;SDS011;14326;50.794;6.060;2022-12-18T11:42:27;34.88;;;15.05;;
26718;SDS011;14326;50.794;6.060;2022-12-18T11:45:02;35.90;;;14.63;;
26718;SDS011;14326;50.794;6.060;2022-12-18T11:47:45;37.50;;;14.35;;
26718;SDS011;14326;50.794;6.060;2022-12-18T11:50:20;44.38;;;16.02;;
26718;SDS011;14326;50.794;6.060;2022-12-18T11:52:50;34.85;;;14.75;;
26718;SDS011;14326;50.794;6.060;2022-12-18T11:55:19;35.63;;;14.98;;
26718;SDS011;14326;50.794;6.060;2022-12-18T11:57:57;36.97;;;16.10;;
26718;SDS011;14326;50.794;6.060;2022-12-18T12:00:29;38.28;;;16.27;;
26718;SDS011;14326;50.794;6.060;2022-12-18T12:03:07;38.92;;;15.35;;
26718;SDS011;14326;50.794;6.060;2022-12-18T12:05:51;37.50;;;15.82;;
26718;SDS011;14326;50.794;6.060;2022-12-18T12:08:29;37.15;;;15.40;;
26718;SDS011;14326;50.794;6.060;2022-12-18T12:11:10;37.47;;;15.25;;
26718;SDS011;14326;50.794;6.060;2022-12-18T12:13:47;34.60;;;14.38;;
26718;SDS011;14326;50.794;6.060;2022-12-18T12:16:31;38.95;;;15.02;;
26718;SDS011;14326;50.794;6.060;2022-12-18T12:19:12;37.03;;;15.23;;
26718;SDS011;14326;50.794;6.060;2022-12-18T12:21:51;34.05;;;14.25;;
26718;SDS011;14326;50.794;6.060;2022-12-18T12:24:27;38.30;;;15.70;;
26718;SDS011;14326;50.794;6.060;2022-12-18T12:27:06;40.65;;;16.95;;
26718;SDS011;14326;50.794;6.060;2022-12-18T12:29:45;37.05;;;15.27;;
26718;SDS011;14326;50.794;6.060;2022-12-18T12:32:26;33.25;;;14.93;;
26718;SDS011;14326;50.794;6.060;2022-12-18T12:35:08;40.35;;;16.63;;
26718;SDS011;14326;50.794;6.060;2022-12-18T12:37:46;41.60;;;17.50;;
26718;SDS011;14326;50.794;6.060;2022-12-18T12:40:23;36.47;;;16.23;;
26718;SDS011;14326;50.794;6.060;2022-12-18T12:42:54;39.75;;;16.08;;
26718;SDS011;14326;50.794;6.060;2022-12-18T12:45:42;54.42;;;23.60;;
26718;SDS011;14326;50.794;6.060;2022-12-18T12:48:16;42.45;;;17.70;;
26718;SDS011;14326;50.794;6.060;2022-12-18T12:50:47;38.30;;;14.90;;
26718;SDS011;14326;50.794;6.060;2022-12-18T12:53:18;36.63;;;15.02;;
26718;SDS011;14326;50.794;6.060;2022-12-18T12:55:51;35.33;;;14.82;;
26718;SDS011;14326;50.794;6.060;2022-12-18T12:58:21;33.60;;;15.07;;
26718;SDS011;14326;50.794;6.060;2022-12-18T13:01:06;35.25;;;14.52;;
26718;SDS011;14326;50.794;6.060;2022-12-18T13:03:41;34.55;;;14.68;;
26718;SDS011;14326;50.794;6.060;2022-12-18T13:06:19;33.05;;;14.65;;
26718;SDS011;14326;50.794;6.060;2022-12-18T13:08:57;32.67;;;15.02;;
26718;SDS011;14326;50.794;6.060;2022-12-18T13:11:35;33.78;;;15.43;;
26718;SDS011;14326;50.794;6.060;2022-12-18T13:14:22;37.75;;;15.52;;
26718;SDS011;14326;50.794;6.060;2022-12-18T13:16:52;36.33;;;17.45;;
26718;SDS011;14326;50.794;6.060;2022-12-18T13:19:43;37.08;;;15.38;;
26718;SDS011;14326;50.794;6.060;2022-12-18T13:22:20;41.55;;;16.90;;
26718;SDS011;14326;50.794;6.060;2022-12-18T13:24:48;32.00;;;14.63;;
26718;SDS011;14326;50.794;6.060;2022-12-18T13:45:42;35.88;;;14.95;;
26718;SDS011;14326;50.794;6.060;2022-12-18T13:48:15;37.15;;;15.40;;
26718;SDS011;14326;50.794;6.060;2022-12-18T13:50:44;35.00;;;14.90;;
26718;SDS011;14326;50.794;6.060;2022-12-18T13:53:15;43.05;;;19.67;;
26718;SDS011;14326;50.794;6.060;2022-12-18T13:55:48;37.50;;;18.42;;
26718;SDS011;14326;50.794;6.060;2022-12-18T13:58:15;44.22;;;19.05;;
26718;SDS011;14326;50.794;6.060;2022-12-18T14:00:42;36.17;;;15.68;;
26718;SDS011;14326;50.794;6.060;2022-12-18T14:03:15;35.22;;;15.55;;
26718;SDS011;14326;50.794;6.060;2022-12-18T14:05:45;36.22;;;14.38;;
26718;SDS011;14326;50.794;6.060;2022-12-18T14:08:19;52.97;;;29.02;;
26718;SDS011;14326;50.794;6.060;2022-12-18T14:10:48;44.60;;;20.92;;
26718;SDS011;14326;50.794;6.060;2022-12-18T14:13:19;39.92;;;17.45;;
26718;SDS011;14326;50.794;6.060;2022-12-18T14:15:50;35.53;;;14.40;;
26718;SDS011;14326;50.794;6.060;2022-12-18T14:18:19;35.30;;;13.52;;
26718;SDS011;14326;50.794;6.060;2022-12-18T14:20:51;36.20;;;14.43;;
26718;SDS011;14326;50.794;6.060;2022-12-18T14:25:54;33.90;;;14.20;;
26718;SDS011;14326;50.794;6.060;2022-12-18T14:28:21;35.38;;;13.68;;
26718;SDS011;14326;50.794;6.060;2022-12-18T14:30:48;39.10;;;15.65;;
26718;SDS011;14326;50.794;6.060;2022-12-18T14:33:16;41.97;;;17.80;;
26718;SDS011;14326;50.794;6.060;2022-12-18T14:35:53;36.97;;;17.33;;
26718;SDS011;14326;50.794;6.060;2022-12-18T14:38:23;32.65;;;14.40;;
26718;SDS011;14326;50.794;6.060;2022-12-18T14:40:57;38.75;;;17.55;;
26718;SDS011;14326;50.794;6.060;2022-12-18T14:43:24;41.15;;;16.10;;
26718;SDS011;14326;50.794;6.060;2022-12-18T14:45:52;40.70;;;16.27;;
26718;SDS011;14326;50.794;6.060;2022-12-18T14:48:20;36.28;;;16.05;;
26718;SDS011;14326;50.794;6.060;2022-12-18T14:50:55;34.28;;;15.73;;
26718;SDS011;14326;50.794;6.060;2022-12-18T14:53:29;35.78;;;15.38;;
26718;SDS011;14326;50.794;6.060;2022-12-18T14:55:59;38.45;;;17.60;;
26718;SDS011;14326;50.794;6.060;2022-12-18T14:58:27;35.58;;;15.82;;
26718;SDS011;14326;50.794;6.060;2022-12-18T15:00:54;34.63;;;14.65;;
26718;SDS011;14326;50.794;6.060;2022-12-18T15:03:21;38.83;;;15.65;;
26718;SDS011;14326;50.794;6.060;2022-12-18T15:05:48;39.60;;;15.95;;